sensor_id;sensor_type;location;lat;lon;timestamp;pressure;altitude;pressure_sealevel;temperature;humidity
76726;BME280;65651;53.154;17.916;2023-05-20T00:01:51;102269.90;;;10.79;75.10
76726;BME280;65651;53.154;17.916;2023-05-20T00:04:19;102267.25;;;10.79;75.26
76726;BME280;65651;53.154;17.916;2023-05-20T00:06:46;102263.41;;;10.77;75.21
76726;BME280;65651;53.154;17.916;2023-05-20T00:09:14;102263.69;;;10.76;75.26
76726;BME280;65651;53.154;17.916;2023-05-20T00:11:44;102262.27;;;10.75;75.37
76726;BME280;65651;53.154;17.916;2023-05-20T00:14:11;102260.08;;;10.76;75.45
76726;BME280;65651;53.154;17.916;2023-05-20T00:16:39;102255.61;;;10.76;75.40
76726;BME280;65651;53.154;17.916;2023-05-20T00:19:06;102255.11;;;10.75;75.53
76726;BME280;65651;53.154;17.916;2023-05-20T00:21:34;102254.13;;;10.73;75.72
76726;BME280;65651;53.154;17.916;2023-05-20T00:24:05;102254.86;;;10.73;75.67
76726;BME280;65651;53.154;17.916;2023-05-20T00:26:32;102253.63;;;10.73;75.69
76726;BME280;65651;53.154;17.916;2023-05-20T00:28:59;102252.34;;;10.74;75.72
76726;BME280;65651;53.154;17.916;2023-05-20T00:31:27;102248.06;;;10.73;75.87
76726;BME280;65651;53.154;17.916;2023-05-20T00:33:54;102245.55;;;10.73;75.87
76726;BME280;65651;53.154;17.916;2023-05-20T00:36:21;102246.28;;;10.72;75.77
76726;BME280;65651;53.154;17.916;2023-05-20T00:38:49;102246.86;;;10.72;75.87
76726;BME280;65651;53.154;17.916;2023-05-20T00:41:16;102244.73;;;10.72;75.85
76726;BME280;65651;53.154;17.916;2023-05-20T00:43:44;102243.84;;;10.72;75.78
76726;BME280;65651;53.154;17.916;2023-05-20T00:46:12;102243.65;;;10.72;75.93
76726;BME280;65651;53.154;17.916;2023-05-20T00:48:42;102245.69;;;10.71;76.17
76726;BME280;65651;53.154;17.916;2023-05-20T00:51:10;102241.09;;;10.70;76.08
76726;BME280;65651;53.154;17.916;2023-05-20T00:53:39;102239.98;;;10.71;76.20
76726;BME280;65651;53.154;17.916;2023-05-20T00:56:08;102236.00;;;10.71;76.16
76726;BME280;65651;53.154;17.916;2023-05-20T00:58:36;102238.45;;;10.69;76.32
76726;BME280;65651;53.154;17.916;2023-05-20T01:01:05;102238.92;;;10.68;76.41
76726;BME280;65651;53.154;17.916;2023-05-20T01:03:32;102238.41;;;10.67;76.31
76726;BME280;65651;53.154;17.916;2023-05-20T01:06:01;102232.83;;;10.67;76.28
76726;BME280;65651;53.154;17.916;2023-05-20T01:08:31;102233.41;;;10.67;76.40
76726;BME280;65651;53.154;17.916;2023-05-20T01:11:07;102230.02;;;10.67;76.32
76726;BME280;65651;53.154;17.916;2023-05-20T01:13:50;102233.89;;;10.65;76.57
76726;BME280;65651;53.154;17.916;2023-05-20T01:16:21;102232.95;;;10.63;76.65
76726;BME280;65651;53.154;17.916;2023-05-20T01:18:54;102235.19;;;10.62;76.56
76726;BME280;65651;53.154;17.916;2023-05-20T01:21:22;102233.73;;;10.63;76.47
76726;BME280;65651;53.154;17.916;2023-05-20T01:23:49;102234.61;;;10.63;76.62
76726;BME280;65651;53.154;17.916;2023-05-20T01:26:17;102231.64;;;10.61;76.69
76726;BME280;65651;53.154;17.916;2023-05-20T01:28:46;102230.04;;;10.61;76.75
76726;BME280;65651;53.154;17.916;2023-05-20T01:31:19;102234.73;;;10.61;76.68
76726;BME280;65651;53.154;17.916;2023-05-20T01:33:54;102237.16;;;10.60;76.81
76726;BME280;65651;53.154;17.916;2023-05-20T01:36:22;102237.88;;;10.57;76.87
76726;BME280;65651;53.154;17.916;2023-05-20T01:38:50;102237.52;;;10.57;76.88
76726;BME280;65651;53.154;17.916;2023-05-20T01:41:19;102231.50;;;10.56;76.87
76726;BME280;65651;53.154;17.916;2023-05-20T01:43:48;102227.58;;;10.55;76.85
76726;BME280;65651;53.154;17.916;2023-05-20T01:46:15;102226.71;;;10.55;76.89
76726;BME280;65651;53.154;17.916;2023-05-20T01:48:45;102227.11;;;10.55;76.89
76726;BME280;65651;53.154;17.916;2023-05-20T01:51:12;102220.20;;;10.53;76.84
76726;BME280;65651;53.154;17.916;2023-05-20T01:53:40;102223.06;;;10.53;76.94
76726;BME280;65651;53.154;17.916;2023-05-20T01:56:08;102222.79;;;10.52;76.91
76726;BME280;65651;53.154;17.916;2023-05-20T01:58:36;102224.45;;;10.52;77.07
76726;BME280;65651;53.154;17.916;2023-05-20T02:01:06;102223.20;;;10.51;77.09
76726;BME280;65651;53.154;17.916;2023-05-20T02:03:33;102223.97;;;10.51;76.98
76726;BME280;65651;53.154;17.916;2023-05-20T02:06:00;102222.92;;;10.50;76.96
76726;BME280;65651;53.154;17.916;2023-05-20T02:08:28;102223.31;;;10.49;77.14
76726;BME280;65651;53.154;17.916;2023-05-20T02:10:55;102219.96;;;10.48;77.03
76726;BME280;65651;53.154;17.916;2023-05-20T02:13:22;102218.23;;;10.47;77.10
76726;BME280;65651;53.154;17.916;2023-05-20T02:15:50;102213.61;;;10.47;77.12
76726;BME280;65651;53.154;17.916;2023-05-20T02:18:17;102219.09;;;10.45;77.28
76726;BME280;65651;53.154;17.916;2023-05-20T02:20:45;102219.25;;;10.43;77.29
76726;BME280;65651;53.154;17.916;2023-05-20T02:23:13;102223.03;;;10.43;77.34
76726;BME280;65651;53.154;17.916;2023-05-20T02:25:40;102223.77;;;10.43;77.23
76726;BME280;65651;53.154;17.916;2023-05-20T02:28:10;102219.48;;;10.42;77.21
76726;BME280;65651;53.154;17.916;2023-05-20T02:30:38;102220.58;;;10.42;77.16
76726;BME280;65651;53.154;17.916;2023-05-20T02:33:05;102218.63;;;10.42;77.29
76726;BME280;65651;53.154;17.916;2023-05-20T02:35:32;102216.55;;;10.41;77.42
76726;BME280;65651;53.154;17.916;2023-05-20T02:38:00;102215.55;;;10.40;77.42
76726;BME280;65651;53.154;17.916;2023-05-20T02:40:27;102215.06;;;10.39;77.32
76726;BME280;65651;53.154;17.916;2023-05-20T02:42:54;102211.19;;;10.38;77.35
76726;BME280;65651;53.154;17.916;2023-05-20T02:45:22;102211.55;;;10.38;77.32
76726;BME280;65651;53.154;17.916;2023-05-20T02:47:49;102212.22;;;10.39;77.35
76726;BME280;65651;53.154;17.916;2023-05-20T02:50:16;102214.18;;;10.39;77.42
76726;BME280;65651;53.154;17.916;2023-05-20T02:52:44;102214.69;;;10.39;77.38
76726;BME280;65651;53.154;17.916;2023-05-20T02:55:12;102214.76;;;10.38;77.42
76726;BME280;65651;53.154;17.916;2023-05-20T02:57:39;102211.89;;;10.38;77.33
76726;BME280;65651;53.154;17.916;2023-05-20T03:00:11;102217.20;;;10.39;77.41
76726;BME280;65651;53.154;17.916;2023-05-20T03:02:39;102217.02;;;10.39;77.26
76726;BME280;65651;53.154;17.916;2023-05-20T03:05:07;102218.59;;;10.40;77.31
76726;BME280;65651;53.154;17.916;2023-05-20T03:07:37;102211.05;;;10.40;77.39
76726;BME280;65651;53.154;17.916;2023-05-20T03:10:07;102216.95;;;10.40;77.38
76726;BME280;65651;53.154;17.916;2023-05-20T03:12:35;102218.02;;;10.40;77.39
76726;BME280;65651;53.154;17.916;2023-05-20T03:15:02;102216.56;;;10.41;77.38
76726;BME280;65651;53.154;17.916;2023-05-20T03:17:30;102219.21;;;10.41;77.31
76726;BME280;65651;53.154;17.916;2023-05-20T03:19:57;102221.90;;;10.41;77.32
76726;BME280;65651;53.154;17.916;2023-05-20T03:22:25;102222.48;;;10.43;77.25
76726;BME280;65651;53.154;17.916;2023-05-20T03:24:53;102220.71;;;10.43;77.28
76726;BME280;65651;53.154;17.916;2023-05-20T03:27:20;102221.05;;;10.43;77.29
76726;BME280;65651;53.154;17.916;2023-05-20T03:29:48;102221.55;;;10.44;77.29
76726;BME280;65651;53.154;17.916;2023-05-20T03:32:15;102223.52;;;10.44;77.26
76726;BME280;65651;53.154;17.916;2023-05-20T03:34:43;102226.17;;;10.44;77.29
76726;BME280;65651;53.154;17.916;2023-05-20T03:37:10;102220.37;;;10.45;77.22
76726;BME280;65651;53.154;17.916;2023-05-20T03:39:38;102224.92;;;10.47;77.35
76726;BME280;65651;53.154;17.916;2023-05-20T03:42:05;102221.63;;;10.48;77.17
76726;BME280;65651;53.154;17.916;2023-05-20T03:44:33;102227.34;;;10.48;77.21
76726;BME280;65651;53.154;17.916;2023-05-20T03:47:01;102229.94;;;10.49;77.08
76726;BME280;65651;53.154;17.916;2023-05-20T03:49:28;102234.06;;;10.50;77.15
76726;BME280;65651;53.154;17.916;2023-05-20T03:51:55;102235.01;;;10.52;77.24
76726;BME280;65651;53.154;17.916;2023-05-20T03:54:23;102232.02;;;10.53;77.02
76726;BME280;65651;53.154;17.916;2023-05-20T03:56:51;102231.15;;;10.55;77.09
76726;BME280;65651;53.154;17.916;2023-05-20T03:59:18;102231.23;;;10.57;77.04
76726;BME280;65651;53.154;17.916;2023-05-20T04:01:45;102237.73;;;10.59;76.99
76726;BME280;65651;53.154;17.916;2023-05-20T04:04:12;102238.84;;;10.61;76.80
76726;BME280;65651;53.154;17.916;2023-05-20T04:06:40;102242.10;;;10.63;77.01
76726;BME280;65651;53.154;17.916;2023-05-20T04:09:07;102239.98;;;10.65;76.86
76726;BME280;65651;53.154;17.916;2023-05-20T04:11:34;102241.67;;;10.67;76.88
76726;BME280;65651;53.154;17.916;2023-05-20T04:14:02;102244.83;;;10.71;76.70
76726;BME280;65651;53.154;17.916;2023-05-20T04:16:30;102247.97;;;10.74;76.72
76726;BME280;65651;53.154;17.916;2023-05-20T04:18:57;102248.00;;;10.79;76.69
76726;BME280;65651;53.154;17.916;2023-05-20T04:21:25;102241.34;;;10.82;76.51
76726;BME280;65651;53.154;17.916;2023-05-20T04:23:53;102241.87;;;10.87;76.56
76726;BME280;65651;53.154;17.916;2023-05-20T04:26:20;102242.54;;;10.93;76.48
76726;BME280;65651;53.154;17.916;2023-05-20T04:28:49;102239.90;;;10.97;76.41
76726;BME280;65651;53.154;17.916;2023-05-20T04:31:17;102241.47;;;11.00;76.42
76726;BME280;65651;53.154;17.916;2023-05-20T04:33:44;102238.17;;;11.04;76.15
76726;BME280;65651;53.154;17.916;2023-05-20T04:36:13;102236.04;;;11.09;76.27
76726;BME280;65651;53.154;17.916;2023-05-20T04:38:42;102233.23;;;11.13;76.09
76726;BME280;65651;53.154;17.916;2023-05-20T04:41:10;102231.98;;;11.18;76.14
76726;BME280;65651;53.154;17.916;2023-05-20T04:43:38;102232.92;;;11.22;76.10
76726;BME280;65651;53.154;17.916;2023-05-20T04:46:09;102230.14;;;11.28;75.94
76726;BME280;65651;53.154;17.916;2023-05-20T04:48:36;102231.32;;;11.34;75.94
76726;BME280;65651;53.154;17.916;2023-05-20T04:51:04;102230.35;;;11.38;75.78
76726;BME280;65651;53.154;17.916;2023-05-20T04:53:32;102232.93;;;11.42;75.72
76726;BME280;65651;53.154;17.916;2023-05-20T04:56:01;102232.89;;;11.42;75.71
76726;BME280;65651;53.154;17.916;2023-05-20T04:58:30;102234.24;;;11.43;75.45
76726;BME280;65651;53.154;17.916;2023-05-20T05:00:57;102238.48;;;11.46;75.42
76726;BME280;65651;53.154;17.916;2023-05-20T05:03:26;102239.92;;;11.49;75.37
76726;BME280;65651;53.154;17.916;2023-05-20T05:05:57;102241.59;;;11.53;75.31
76726;BME280;65651;53.154;17.916;2023-05-20T05:08:26;102239.20;;;11.59;75.33
76726;BME280;65651;53.154;17.916;2023-05-20T05:10:53;102240.14;;;11.64;75.17
76726;BME280;65651;53.154;17.916;2023-05-20T05:13:21;102240.94;;;11.70;74.96
76726;BME280;65651;53.154;17.916;2023-05-20T05:16:00;102234.13;;;11.77;75.04
76726;BME280;65651;53.154;17.916;2023-05-20T05:18:28;102236.10;;;11.84;74.60
76726;BME280;65651;53.154;17.916;2023-05-20T05:21:03;102238.13;;;11.93;74.68
76726;BME280;65651;53.154;17.916;2023-05-20T05:23:31;102243.66;;;11.99;74.64
76726;BME280;65651;53.154;17.916;2023-05-20T05:26:02;102246.59;;;12.05;74.44
76726;BME280;65651;53.154;17.916;2023-05-20T05:28:29;102243.67;;;12.11;74.39
76726;BME280;65651;53.154;17.916;2023-05-20T05:30:57;102241.54;;;12.19;74.22
76726;BME280;65651;53.154;17.916;2023-05-20T05:33:26;102241.45;;;12.30;74.28
76726;BME280;65651;53.154;17.916;2023-05-20T05:35:54;102237.85;;;12.44;74.02
76726;BME280;65651;53.154;17.916;2023-05-20T05:38:25;102237.16;;;12.55;74.03
76726;BME280;65651;53.154;17.916;2023-05-20T05:40:52;102241.02;;;12.64;73.55
76726;BME280;65651;53.154;17.916;2023-05-20T05:43:19;102240.11;;;12.71;73.43
76726;BME280;65651;53.154;17.916;2023-05-20T05:45:47;102239.88;;;12.76;73.37
76726;BME280;65651;53.154;17.916;2023-05-20T05:48:17;102235.37;;;12.80;73.31
76726;BME280;65651;53.154;17.916;2023-05-20T05:50:45;102235.11;;;12.86;72.87
76726;BME280;65651;53.154;17.916;2023-05-20T05:53:13;102236.73;;;12.88;72.72
76726;BME280;65651;53.154;17.916;2023-05-20T05:55:42;102235.08;;;12.89;72.64
76726;BME280;65651;53.154;17.916;2023-05-20T05:58:09;102233.83;;;12.93;72.59
76726;BME280;65651;53.154;17.916;2023-05-20T06:00:38;102237.02;;;13.01;72.39
76726;BME280;65651;53.154;17.916;2023-05-20T06:03:05;102231.47;;;13.09;72.16
76726;BME280;65651;53.154;17.916;2023-05-20T06:05:33;102233.53;;;13.17;72.07
76726;BME280;65651;53.154;17.916;2023-05-20T06:08:00;102236.89;;;13.25;71.97
76726;BME280;65651;53.154;17.916;2023-05-20T06:10:28;102237.77;;;13.32;71.84
76726;BME280;65651;53.154;17.916;2023-05-20T06:12:55;102236.88;;;13.38;71.60
76726;BME280;65651;53.154;17.916;2023-05-20T06:15:23;102242.02;;;13.47;71.51
76726;BME280;65651;53.154;17.916;2023-05-20T06:17:51;102241.98;;;13.54;71.17
76726;BME280;65651;53.154;17.916;2023-05-20T06:20:18;102244.08;;;13.57;71.05
76726;BME280;65651;53.154;17.916;2023-05-20T06:22:46;102238.31;;;13.59;70.85
76726;BME280;65651;53.154;17.916;2023-05-20T06:25:16;102238.64;;;13.68;70.83
76726;BME280;65651;53.154;17.916;2023-05-20T06:27:44;102239.72;;;13.77;70.70
76726;BME280;65651;53.154;17.916;2023-05-20T06:30:14;102237.91;;;13.81;70.34
76726;BME280;65651;53.154;17.916;2023-05-20T06:32:42;102241.92;;;13.85;70.28
76726;BME280;65651;53.154;17.916;2023-05-20T06:35:09;102242.85;;;13.95;70.20
76726;BME280;65651;53.154;17.916;2023-05-20T06:37:37;102240.81;;;14.01;69.84
76726;BME280;65651;53.154;17.916;2023-05-20T06:40:05;102245.67;;;14.01;69.95
76726;BME280;65651;53.154;17.916;2023-05-20T06:42:34;102244.73;;;14.05;69.73
76726;BME280;65651;53.154;17.916;2023-05-20T06:45:05;102242.16;;;14.14;69.55
76726;BME280;65651;53.154;17.916;2023-05-20T06:47:48;102243.30;;;14.22;69.37
76726;BME280;65651;53.154;17.916;2023-05-20T06:50:16;102246.70;;;14.29;69.20
76726;BME280;65651;53.154;17.916;2023-05-20T06:52:43;102246.45;;;14.32;68.91
76726;BME280;65651;53.154;17.916;2023-05-20T06:55:11;102244.12;;;14.38;68.75
76726;BME280;65651;53.154;17.916;2023-05-20T06:57:39;102242.89;;;14.48;68.54
76726;BME280;65651;53.154;17.916;2023-05-20T07:00:08;102242.13;;;14.58;68.35
76726;BME280;65651;53.154;17.916;2023-05-20T07:02:41;102241.23;;;14.64;68.18
76726;BME280;65651;53.154;17.916;2023-05-20T07:05:10;102235.73;;;14.70;67.90
76726;BME280;65651;53.154;17.916;2023-05-20T07:07:38;102231.71;;;14.79;67.86
76726;BME280;65651;53.154;17.916;2023-05-20T07:10:06;102229.25;;;14.93;67.50
76726;BME280;65651;53.154;17.916;2023-05-20T07:12:34;102228.09;;;15.02;66.96
76726;BME280;65651;53.154;17.916;2023-05-20T07:15:01;102228.17;;;15.05;66.67
76726;BME280;65651;53.154;17.916;2023-05-20T07:17:29;102221.21;;;15.06;66.47
76726;BME280;65651;53.154;17.916;2023-05-20T07:19:56;102223.34;;;15.15;66.45
76726;BME280;65651;53.154;17.916;2023-05-20T07:22:23;102225.52;;;15.31;66.39
76726;BME280;65651;53.154;17.916;2023-05-20T07:24:58;102216.99;;;15.49;65.97
76726;BME280;65651;53.154;17.916;2023-05-20T07:27:27;102220.81;;;15.61;65.60
76726;BME280;65651;53.154;17.916;2023-05-20T07:29:54;102217.77;;;15.73;65.39
76726;BME280;65651;53.154;17.916;2023-05-20T07:32:22;102219.89;;;15.83;65.15
76726;BME280;65651;53.154;17.916;2023-05-20T07:34:49;102222.05;;;15.91;64.69
76726;BME280;65651;53.154;17.916;2023-05-20T07:37:18;102218.73;;;15.94;64.64
76726;BME280;65651;53.154;17.916;2023-05-20T07:39:49;102215.61;;;16.02;64.34
76726;BME280;65651;53.154;17.916;2023-05-20T07:42:16;102216.89;;;16.04;63.90
76726;BME280;65651;53.154;17.916;2023-05-20T07:44:47;102214.54;;;16.10;63.66
76726;BME280;65651;53.154;17.916;2023-05-20T07:47:14;102212.14;;;16.18;63.47
76726;BME280;65651;53.154;17.916;2023-05-20T07:49:42;102210.33;;;16.31;63.44
76726;BME280;65651;53.154;17.916;2023-05-20T07:52:10;102208.33;;;16.52;63.12
76726;BME280;65651;53.154;17.916;2023-05-20T07:54:38;102207.41;;;16.74;62.75
76726;BME280;65651;53.154;17.916;2023-05-20T07:57:05;102204.38;;;16.96;62.55
76726;BME280;65651;53.154;17.916;2023-05-20T07:59:32;102202.52;;;17.19;62.13
76726;BME280;65651;53.154;17.916;2023-05-20T08:02:00;102200.75;;;17.40;61.79
76726;BME280;65651;53.154;17.916;2023-05-20T08:04:27;102199.96;;;17.66;61.20
76726;BME280;65651;53.154;17.916;2023-05-20T08:06:55;102199.23;;;17.88;60.92
76726;BME280;65651;53.154;17.916;2023-05-20T08:09:34;102201.80;;;18.11;60.35
76726;BME280;65651;53.154;17.916;2023-05-20T08:12:02;102197.98;;;18.36;59.95
76726;BME280;65651;53.154;17.916;2023-05-20T08:14:29;102188.56;;;18.67;59.47
76726;BME280;65651;53.154;17.916;2023-05-20T08:16:58;102189.55;;;18.87;58.71
76726;BME280;65651;53.154;17.916;2023-05-20T08:19:26;102182.60;;;19.00;58.38
76726;BME280;65651;53.154;17.916;2023-05-20T08:21:53;102184.88;;;19.29;57.86
76726;BME280;65651;53.154;17.916;2023-05-20T08:24:20;102187.73;;;19.57;57.27
76726;BME280;65651;53.154;17.916;2023-05-20T08:26:48;102186.33;;;19.68;56.55
76726;BME280;65651;53.154;17.916;2023-05-20T08:29:16;102190.56;;;19.68;56.31
76726;BME280;65651;53.154;17.916;2023-05-20T08:31:44;102185.06;;;19.68;55.93
76726;BME280;65651;53.154;17.916;2023-05-20T08:34:12;102183.81;;;19.68;55.80
76726;BME280;65651;53.154;17.916;2023-05-20T08:36:40;102187.72;;;19.77;55.59
76726;BME280;65651;53.154;17.916;2023-05-20T08:39:08;102187.65;;;19.81;55.02
76726;BME280;65651;53.154;17.916;2023-05-20T08:41:37;102183.58;;;19.75;54.74
76726;BME280;65651;53.154;17.916;2023-05-20T08:44:07;102178.90;;;19.79;54.63
76726;BME280;65651;53.154;17.916;2023-05-20T08:46:37;102175.40;;;19.93;54.27
76726;BME280;65651;53.154;17.916;2023-05-20T08:49:06;102173.20;;;20.18;54.01
76726;BME280;65651;53.154;17.916;2023-05-20T08:51:35;102171.27;;;20.40;53.39
76726;BME280;65651;53.154;17.916;2023-05-20T08:54:03;102172.44;;;20.44;53.04
76726;BME280;65651;53.154;17.916;2023-05-20T08:56:31;102164.54;;;20.45;52.65
76726;BME280;65651;53.154;17.916;2023-05-20T09:02:37;102159.75;;;20.72;52.01
76726;BME280;65651;53.154;17.916;2023-05-20T09:05:05;102155.15;;;20.90;51.68
76726;BME280;65651;53.154;17.916;2023-05-20T09:07:33;102151.21;;;21.08;51.33
76726;BME280;65651;53.154;17.916;2023-05-20T09:10:00;102150.02;;;21.17;50.54
76726;BME280;65651;53.154;17.916;2023-05-20T09:12:27;102150.63;;;21.39;50.21
76726;BME280;65651;53.154;17.916;2023-05-20T09:14:54;102154.06;;;21.65;49.32
76726;BME280;65651;53.154;17.916;2023-05-20T09:17:22;102151.11;;;22.08;49.06
76726;BME280;65651;53.154;17.916;2023-05-20T09:19:50;102145.34;;;23.03;48.39
76726;BME280;65651;53.154;17.916;2023-05-20T09:22:27;102145.88;;;23.78;47.18
76726;BME280;65651;53.154;17.916;2023-05-20T09:24:55;102139.08;;;24.00;45.91
76726;BME280;65651;53.154;17.916;2023-05-20T09:27:22;102133.95;;;25.71;44.44
76726;BME280;65651;53.154;17.916;2023-05-20T09:29:50;102131.15;;;27.74;42.65
76726;BME280;65651;53.154;17.916;2023-05-20T09:32:20;102129.50;;;29.55;40.44
76726;BME280;65651;53.154;17.916;2023-05-20T09:34:50;102123.67;;;31.26;38.84
76726;BME280;65651;53.154;17.916;2023-05-20T09:37:20;102119.00;;;32.55;35.82
76726;BME280;65651;53.154;17.916;2023-05-20T09:39:55;102118.55;;;32.93;33.73
76726;BME280;65651;53.154;17.916;2023-05-20T09:42:30;102113.45;;;33.05;32.45
76726;BME280;65651;53.154;17.916;2023-05-20T09:45:02;102103.52;;;33.61;30.61
76726;BME280;65651;53.154;17.916;2023-05-20T09:47:31;102103.63;;;34.02;29.63
76726;BME280;65651;53.154;17.916;2023-05-20T09:49:58;102103.89;;;34.49;28.70
76726;BME280;65651;53.154;17.916;2023-05-20T09:52:27;102099.95;;;34.92;27.63
76726;BME280;65651;53.154;17.916;2023-05-20T09:54:55;102100.56;;;35.04;26.90
76726;BME280;65651;53.154;17.916;2023-05-20T09:57:23;102101.94;;;34.50;26.42
76726;BME280;65651;53.154;17.916;2023-05-20T09:59:51;102106.73;;;34.75;25.76
76726;BME280;65651;53.154;17.916;2023-05-20T10:02:19;102099.88;;;34.47;25.57
76726;BME280;65651;53.154;17.916;2023-05-20T10:04:49;102102.24;;;32.87;25.98
76726;BME280;65651;53.154;17.916;2023-05-20T10:16:19;102098.30;;;27.70;30.02
76726;BME280;65651;53.154;17.916;2023-05-20T10:21:37;102101.55;;;26.45;31.75
76726;BME280;65651;53.154;17.916;2023-05-20T10:24:09;102094.16;;;26.05;32.44
76726;BME280;65651;53.154;17.916;2023-05-20T10:26:38;102092.96;;;25.62;33.38
76726;BME280;65651;53.154;17.916;2023-05-20T10:31:50;102082.21;;;24.74;34.55
76726;BME280;65651;53.154;17.916;2023-05-20T10:34:19;102086.65;;;24.64;35.20
76726;BME280;65651;53.154;17.916;2023-05-20T10:37:06;102084.47;;;24.61;35.61
76726;BME280;65651;53.154;17.916;2023-05-20T10:39:34;102079.13;;;24.42;35.97
76726;BME280;65651;53.154;17.916;2023-05-20T10:42:09;102079.12;;;24.25;36.31
76726;BME280;65651;53.154;17.916;2023-05-20T10:44:43;102077.71;;;23.93;36.85
76726;BME280;65651;53.154;17.916;2023-05-20T10:47:11;102075.57;;;23.74;37.33
76726;BME280;65651;53.154;17.916;2023-05-20T10:49:44;102080.84;;;23.75;37.66
76726;BME280;65651;53.154;17.916;2023-05-20T10:52:13;102077.43;;;23.70;38.01
76726;BME280;65651;53.154;17.916;2023-05-20T10:57:26;102078.73;;;23.52;38.15
76726;BME280;65651;53.154;17.916;2023-05-20T10:59:54;102075.08;;;23.13;38.83
76726;BME280;65651;53.154;17.916;2023-05-20T11:02:21;102071.74;;;22.70;39.13
76726;BME280;65651;53.154;17.916;2023-05-20T11:04:56;102069.41;;;22.54;39.67
76726;BME280;65651;53.154;17.916;2023-05-20T11:07:30;102066.48;;;22.50;39.83
76726;BME280;65651;53.154;17.916;2023-05-20T11:09:58;102058.73;;;22.53;39.78
76726;BME280;65651;53.154;17.916;2023-05-20T11:12:26;102059.57;;;22.39;40.22
76726;BME280;65651;53.154;17.916;2023-05-20T11:14:54;102056.43;;;22.24;40.56
76726;BME280;65651;53.154;17.916;2023-05-20T11:17:22;102058.64;;;22.26;40.66
76726;BME280;65651;53.154;17.916;2023-05-20T11:19:49;102063.84;;;22.29;40.81
76726;BME280;65651;53.154;17.916;2023-05-20T11:22:17;102065.61;;;22.08;41.10
76726;BME280;65651;53.154;17.916;2023-05-20T11:24:45;102066.78;;;21.88;41.57
76726;BME280;65651;53.154;17.916;2023-05-20T11:27:12;102060.85;;;21.94;41.87
76726;BME280;65651;53.154;17.916;2023-05-20T11:29:40;102057.91;;;22.17;41.73
76726;BME280;65651;53.154;17.916;2023-05-20T11:32:08;102054.27;;;22.43;41.71
76726;BME280;65651;53.154;17.916;2023-05-20T11:34:36;102050.97;;;22.67;41.75
76726;BME280;65651;53.154;17.916;2023-05-20T11:37:07;102045.48;;;22.83;41.91
76726;BME280;65651;53.154;17.916;2023-05-20T11:39:36;102043.45;;;23.01;41.57
76726;BME280;65651;53.154;17.916;2023-05-20T11:42:04;102046.30;;;23.06;41.57
76726;BME280;65651;53.154;17.916;2023-05-20T11:44:32;102042.73;;;23.01;41.71
76726;BME280;65651;53.154;17.916;2023-05-20T11:47:01;102040.86;;;23.03;41.54
76726;BME280;65651;53.154;17.916;2023-05-20T11:49:29;102042.55;;;23.00;41.53
76726;BME280;65651;53.154;17.916;2023-05-20T11:51:57;102039.08;;;22.87;41.80
76726;BME280;65651;53.154;17.916;2023-05-20T11:54:24;102036.16;;;22.76;42.12
76726;BME280;65651;53.154;17.916;2023-05-20T11:56:53;102040.66;;;22.86;42.17
76726;BME280;65651;53.154;17.916;2023-05-20T11:59:23;102040.27;;;23.03;41.92
76726;BME280;65651;53.154;17.916;2023-05-20T12:01:52;102036.11;;;23.10;41.83
76726;BME280;65651;53.154;17.916;2023-05-20T12:04:20;102033.68;;;23.00;41.97
76726;BME280;65651;53.154;17.916;2023-05-20T12:06:47;102040.46;;;22.99;41.94
76726;BME280;65651;53.154;17.916;2023-05-20T12:09:14;102035.88;;;22.94;42.14
76726;BME280;65651;53.154;17.916;2023-05-20T12:11:42;102035.68;;;23.02;42.20
76726;BME280;65651;53.154;17.916;2023-05-20T12:14:13;102038.69;;;22.98;42.23
76726;BME280;65651;53.154;17.916;2023-05-20T12:16:46;102036.20;;;22.95;42.50
76726;BME280;65651;53.154;17.916;2023-05-20T12:19:13;102032.84;;;23.05;42.42
76726;BME280;65651;53.154;17.916;2023-05-20T12:21:40;102033.41;;;23.10;42.06
76726;BME280;65651;53.154;17.916;2023-05-20T12:24:08;102035.00;;;23.02;42.28
76726;BME280;65651;53.154;17.916;2023-05-20T12:26:36;102037.98;;;22.90;42.58
76726;BME280;65651;53.154;17.916;2023-05-20T12:29:03;102037.14;;;22.85;42.62
76726;BME280;65651;53.154;17.916;2023-05-20T12:31:30;102031.86;;;22.82;42.81
76726;BME280;65651;53.154;17.916;2023-05-20T12:33:58;102025.59;;;22.86;43.02
76726;BME280;65651;53.154;17.916;2023-05-20T12:36:25;102019.46;;;22.78;42.97
76726;BME280;65651;53.154;17.916;2023-05-20T12:38:53;102013.85;;;22.75;43.18
76726;BME280;65651;53.154;17.916;2023-05-20T12:41:20;102017.19;;;22.75;43.08
76726;BME280;65651;53.154;17.916;2023-05-20T12:43:48;102019.17;;;22.65;43.09
76726;BME280;65651;53.154;17.916;2023-05-20T12:46:17;102016.98;;;22.49;43.28
76726;BME280;65651;53.154;17.916;2023-05-20T12:48:44;102013.66;;;22.27;43.55
76726;BME280;65651;53.154;17.916;2023-05-20T12:51:12;102012.20;;;22.14;43.62
76726;BME280;65651;53.154;17.916;2023-05-20T12:53:39;102005.91;;;22.22;43.80
76726;BME280;65651;53.154;17.916;2023-05-20T12:56:09;102004.46;;;22.37;43.97
76726;BME280;65651;53.154;17.916;2023-05-20T12:58:36;102009.81;;;22.48;43.82
76726;BME280;65651;53.154;17.916;2023-05-20T13:01:04;102001.09;;;22.58;43.81
76726;BME280;65651;53.154;17.916;2023-05-20T13:03:34;101992.44;;;22.66;43.78
76726;BME280;65651;53.154;17.916;2023-05-20T13:06:02;101990.59;;;22.76;43.84
76726;BME280;65651;53.154;17.916;2023-05-20T13:08:30;101989.98;;;22.82;43.68